sensor_id;sensor_type;location;lat;lon;timestamp;temperature;humidity
74224;SHT31;62585;49.706;18.216;2022-09-09T00:02:26;15.53;92.88
74224;SHT31;62585;49.706;18.216;2022-09-09T00:04:57;15.46;92.97
74224;SHT31;62585;49.706;18.216;2022-09-09T00:07:37;15.50;92.91
74224;SHT31;62585;49.706;18.216;2022-09-09T00:20:55;15.40;93.04
74224;SHT31;62585;49.706;18.216;2022-09-09T00:23:27;15.37;92.90
74224;SHT31;62585;49.706;18.216;2022-09-09T00:29:10;15.33;93.12
74224;SHT31;62585;49.706;18.216;2022-09-09T00:31:31;15.36;92.53
74224;SHT31;62585;49.706;18.216;2022-09-09T00:34:20;15.33;92.53
74224;SHT31;62585;49.706;18.216;2022-09-09T00:36:45;15.33;92.46
74224;SHT31;62585;49.706;18.216;2022-09-09T00:39:32;15.37;92.54
74224;SHT31;62585;49.706;18.216;2022-09-09T00:42:15;15.22;92.94
74224;SHT31;62585;49.706;18.216;2022-09-09T00:47:43;15.08;93.34
74224;SHT31;62585;49.706;18.216;2022-09-09T00:50:15;15.16;93.25
74224;SHT31;62585;49.706;18.216;2022-09-09T00:55:46;15.10;93.19
74224;SHT31;62585;49.706;18.216;2022-09-09T00:58:14;15.09;93.06
74224;SHT31;62585;49.706;18.216;2022-09-09T01:00:51;15.06;93.28
74224;SHT31;62585;49.706;18.216;2022-09-09T01:03:37;15.06;93.34
74224;SHT31;62585;49.706;18.216;2022-09-09T01:16:54;15.25;92.81
74224;SHT31;62585;49.706;18.216;2022-09-09T01:19:40;15.27;92.76
74224;SHT31;62585;49.706;18.216;2022-09-09T01:22:32;15.26;92.72
74224;SHT31;62585;49.706;18.216;2022-09-09T01:28:08;15.42;92.43
74224;SHT31;62585;49.706;18.216;2022-09-09T01:30:38;15.43;92.27
74224;SHT31;62585;49.706;18.216;2022-09-09T01:33:04;15.42;92.56
74224;SHT31;62585;49.706;18.216;2022-09-09T01:38:20;15.50;92.21
74224;SHT31;62585;49.706;18.216;2022-09-09T01:40:47;15.53;92.20
74224;SHT31;62585;49.706;18.216;2022-09-09T01:43:13;15.56;92.10
74224;SHT31;62585;49.706;18.216;2022-09-09T01:45:41;15.60;92.31
74224;SHT31;62585;49.706;18.216;2022-09-09T01:48:09;15.50;92.32
74224;SHT31;62585;49.706;18.216;2022-09-09T01:50:35;15.47;92.35
74224;SHT31;62585;49.706;18.216;2022-09-09T01:53:01;15.54;92.34
74224;SHT31;62585;49.706;18.216;2022-09-09T01:55:31;15.54;91.96
74224;SHT31;62585;49.706;18.216;2022-09-09T02:00:43;15.53;92.15
74224;SHT31;62585;49.706;18.216;2022-09-09T02:03:27;15.47;91.85
74224;SHT31;62585;49.706;18.216;2022-09-09T02:08:38;15.42;92.42
74224;SHT31;62585;49.706;18.216;2022-09-09T02:11:11;15.47;92.28
74224;SHT31;62585;49.706;18.216;2022-09-09T02:13:39;15.44;92.31
74224;SHT31;62585;49.706;18.216;2022-09-09T02:19:15;15.39;92.46
74224;SHT31;62585;49.706;18.216;2022-09-09T02:21:44;15.44;92.40
74224;SHT31;62585;49.706;18.216;2022-09-09T02:24:13;15.44;92.24
74224;SHT31;62585;49.706;18.216;2022-09-09T02:26:42;15.49;92.03
74224;SHT31;62585;49.706;18.216;2022-09-09T02:29:14;15.50;92.04
74224;SHT31;62585;49.706;18.216;2022-09-09T02:31:44;15.44;92.05
74224;SHT31;62585;49.706;18.216;2022-09-09T02:34:12;15.43;91.97
74224;SHT31;62585;49.706;18.216;2022-09-09T02:36:41;15.39;92.29
74224;SHT31;62585;49.706;18.216;2022-09-09T02:39:10;15.36;92.48
74224;SHT31;62585;49.706;18.216;2022-09-09T02:41:39;15.27;92.59
74224;SHT31;62585;49.706;18.216;2022-09-09T02:44:12;15.23;92.65
74224;SHT31;62585;49.706;18.216;2022-09-09T02:47:08;15.20;92.56
74224;SHT31;62585;49.706;18.216;2022-09-09T02:52:32;15.22;92.48
74224;SHT31;62585;49.706;18.216;2022-09-09T02:55:06;15.25;92.35
74224;SHT31;62585;49.706;18.216;2022-09-09T02:57:36;15.22;92.24
74224;SHT31;62585;49.706;18.216;2022-09-09T03:00:03;15.20;92.53
74224;SHT31;62585;49.706;18.216;2022-09-09T03:02:29;15.19;92.57
74224;SHT31;62585;49.706;18.216;2022-09-09T03:04:56;15.19;92.59
74224;SHT31;62585;49.706;18.216;2022-09-09T03:07:22;15.16;92.61
74224;SHT31;62585;49.706;18.216;2022-09-09T03:09:47;15.13;92.43
74224;SHT31;62585;49.706;18.216;2022-09-09T03:12:14;15.10;92.57
74224;SHT31;62585;49.706;18.216;2022-09-09T03:14:41;14.98;93.15
74224;SHT31;62585;49.706;18.216;2022-09-09T03:17:08;14.89;93.40
74224;SHT31;62585;49.706;18.216;2022-09-09T03:19:35;14.98;93.19
74224;SHT31;62585;49.706;18.216;2022-09-09T03:22:01;15.00;93.08
74224;SHT31;62585;49.706;18.216;2022-09-09T03:24:27;15.03;93.08
74224;SHT31;62585;49.706;18.216;2022-09-09T03:26:53;15.03;93.04
74224;SHT31;62585;49.706;18.216;2022-09-09T03:29:21;15.06;92.93
74224;SHT31;62585;49.706;18.216;2022-09-09T03:31:47;15.10;92.84
74224;SHT31;62585;49.706;18.216;2022-09-09T03:34:14;15.09;92.72
74224;SHT31;62585;49.706;18.216;2022-09-09T03:36:40;15.03;92.71
74224;SHT31;62585;49.706;18.216;2022-09-09T03:39:06;15.06;92.77
74224;SHT31;62585;49.706;18.216;2022-09-09T03:41:33;15.03;92.55
74224;SHT31;62585;49.706;18.216;2022-09-09T03:43:59;14.99;92.53
74224;SHT31;62585;49.706;18.216;2022-09-09T03:46:26;14.99;92.45
74224;SHT31;62585;49.706;18.216;2022-09-09T03:48:52;14.96;92.52
74224;SHT31;62585;49.706;18.216;2022-09-09T03:51:18;14.95;92.65
74224;SHT31;62585;49.706;18.216;2022-09-09T03:53:44;14.96;92.58
74224;SHT31;62585;49.706;18.216;2022-09-09T03:56:11;14.96;92.60
74224;SHT31;62585;49.706;18.216;2022-09-09T03:58:37;15.00;92.51
74224;SHT31;62585;49.706;18.216;2022-09-09T04:01:06;15.03;92.35
74224;SHT31;62585;49.706;18.216;2022-09-09T04:03:34;15.08;92.12
74224;SHT31;62585;49.706;18.216;2022-09-09T04:06:01;15.13;91.93
74224;SHT31;62585;49.706;18.216;2022-09-09T04:08:29;15.08;92.33
74224;SHT31;62585;49.706;18.216;2022-09-09T04:10:57;15.13;91.95
74224;SHT31;62585;49.706;18.216;2022-09-09T04:13:24;15.10;91.87
74224;SHT31;62585;49.706;18.216;2022-09-09T04:15:55;15.12;91.88
74224;SHT31;62585;49.706;18.216;2022-09-09T04:18:22;15.13;91.94
74224;SHT31;62585;49.706;18.216;2022-09-09T04:20:49;15.09;92.12
74224;SHT31;62585;49.706;18.216;2022-09-09T04:23:16;15.09;92.16
74224;SHT31;62585;49.706;18.216;2022-09-09T04:25:45;15.08;92.27
74224;SHT31;62585;49.706;18.216;2022-09-09T04:28:13;14.91;92.26
74224;SHT31;62585;49.706;18.216;2022-09-09T04:30:40;14.89;92.85
74224;SHT31;62585;49.706;18.216;2022-09-09T04:33:07;14.87;92.64
74224;SHT31;62585;49.706;18.216;2022-09-09T04:35:33;14.91;92.46
74224;SHT31;62585;49.706;18.216;2022-09-09T04:37:59;14.78;92.53
74224;SHT31;62585;49.706;18.216;2022-09-09T04:40:27;14.70;92.99
74224;SHT31;62585;49.706;18.216;2022-09-09T04:42:53;14.61;93.10
74224;SHT31;62585;49.706;18.216;2022-09-09T04:45:19;14.71;93.28
74224;SHT31;62585;49.706;18.216;2022-09-09T04:47:45;14.75;93.19
74224;SHT31;62585;49.706;18.216;2022-09-09T04:50:11;14.78;92.81
74224;SHT31;62585;49.706;18.216;2022-09-09T04:52:37;14.87;92.49
74224;SHT31;62585;49.706;18.216;2022-09-09T04:55:04;14.92;92.37
74224;SHT31;62585;49.706;18.216;2022-09-09T04:57:30;14.93;92.13
74224;SHT31;62585;49.706;18.216;2022-09-09T04:59:58;15.02;92.11
74224;SHT31;62585;49.706;18.216;2022-09-09T05:02:26;15.08;91.88
74224;SHT31;62585;49.706;18.216;2022-09-09T05:04:52;15.09;91.74
74224;SHT31;62585;49.706;18.216;2022-09-09T05:07:18;15.16;91.60
74224;SHT31;62585;49.706;18.216;2022-09-09T05:09:44;15.25;91.48
74224;SHT31;62585;49.706;18.216;2022-09-09T05:12:11;15.26;91.24
74224;SHT31;62585;49.706;18.216;2022-09-09T05:14:36;15.32;91.75
74224;SHT31;62585;49.706;18.216;2022-09-09T05:17:03;15.26;92.34
74224;SHT31;62585;49.706;18.216;2022-09-09T05:19:29;15.18;92.75
74224;SHT31;62585;49.706;18.216;2022-09-09T05:21:56;15.18;92.37
74224;SHT31;62585;49.706;18.216;2022-09-09T05:24:23;15.08;92.59
74224;SHT31;62585;49.706;18.216;2022-09-09T05:26:48;15.15;92.75
74224;SHT31;62585;49.706;18.216;2022-09-09T05:29:14;15.06;92.66
74224;SHT31;62585;49.706;18.216;2022-09-09T05:31:40;15.08;92.82
74224;SHT31;62585;49.706;18.216;2022-09-09T05:34:06;15.22;92.39
74224;SHT31;62585;49.706;18.216;2022-09-09T05:36:32;15.25;92.39
74224;SHT31;62585;49.706;18.216;2022-09-09T05:38:58;15.27;92.28
74224;SHT31;62585;49.706;18.216;2022-09-09T05:41:25;15.30;92.09
74224;SHT31;62585;49.706;18.216;2022-09-09T05:43:51;15.35;92.12
74224;SHT31;62585;49.706;18.216;2022-09-09T05:46:19;15.33;92.27
74224;SHT31;62585;49.706;18.216;2022-09-09T05:48:46;15.47;92.64
74224;SHT31;62585;49.706;18.216;2022-09-09T05:51:13;15.51;92.08
74224;SHT31;62585;49.706;18.216;2022-09-09T05:53:45;15.58;91.88
74224;SHT31;62585;49.706;18.216;2022-09-09T05:56:19;15.61;91.71
74224;SHT31;62585;49.706;18.216;2022-09-09T05:58:46;15.70;92.01
74224;SHT31;62585;49.706;18.216;2022-09-09T06:01:20;15.77;91.68
74224;SHT31;62585;49.706;18.216;2022-09-09T06:03:49;15.88;91.73
74224;SHT31;62585;49.706;18.216;2022-09-09T06:06:17;15.97;91.30
74224;SHT31;62585;49.706;18.216;2022-09-09T06:08:44;16.05;91.57
74224;SHT31;62585;49.706;18.216;2022-09-09T06:11:19;16.22;91.23
74224;SHT31;62585;49.706;18.216;2022-09-09T06:13:45;16.25;90.00
74224;SHT31;62585;49.706;18.216;2022-09-09T06:16:15;16.22;90.91
74224;SHT31;62585;49.706;18.216;2022-09-09T06:18:42;16.39;90.64
74224;SHT31;62585;49.706;18.216;2022-09-09T06:21:22;16.55;90.49
74224;SHT31;62585;49.706;18.216;2022-09-09T06:23:49;16.66;89.72
74224;SHT31;62585;49.706;18.216;2022-09-09T06:26:20;16.69;89.63
74224;SHT31;62585;49.706;18.216;2022-09-09T06:28:47;16.77;89.56
74224;SHT31;62585;49.706;18.216;2022-09-09T06:31:15;16.76;89.59
74224;SHT31;62585;49.706;18.216;2022-09-09T06:33:49;16.97;90.39
74224;SHT31;62585;49.706;18.216;2022-09-09T06:36:20;17.06;89.21
74224;SHT31;62585;49.706;18.216;2022-09-09T06:38:46;16.92;89.19
74224;SHT31;62585;49.706;18.216;2022-09-09T06:41:14;16.87;89.83
74224;SHT31;62585;49.706;18.216;2022-09-09T06:43:41;16.84;89.22
74224;SHT31;62585;49.706;18.216;2022-09-09T06:48:39;16.97;89.23
74224;SHT31;62585;49.706;18.216;2022-09-09T06:51:18;17.15;88.77
74224;SHT31;62585;49.706;18.216;2022-09-09T06:53:46;17.19;88.51
74224;SHT31;62585;49.706;18.216;2022-09-09T06:56:19;17.17;88.51
74224;SHT31;62585;49.706;18.216;2022-09-09T06:58:47;17.28;88.64
74224;SHT31;62585;49.706;18.216;2022-09-09T07:01:16;17.45;88.56
74224;SHT31;62585;49.706;18.216;2022-09-09T07:03:46;17.53;87.83
74224;SHT31;62585;49.706;18.216;2022-09-09T07:06:15;17.55;87.55
74224;SHT31;62585;49.706;18.216;2022-09-09T07:08:44;17.82;87.40
74224;SHT31;62585;49.706;18.216;2022-09-09T07:11:13;18.00;87.11
74224;SHT31;62585;49.706;18.216;2022-09-09T07:13:39;18.04;85.89
74224;SHT31;62585;49.706;18.216;2022-09-09T07:16:10;18.23;86.35
74224;SHT31;62585;49.706;18.216;2022-09-09T07:18:37;18.23;85.11
74224;SHT31;62585;49.706;18.216;2022-09-09T07:21:03;18.31;86.12
74224;SHT31;62585;49.706;18.216;2022-09-09T07:23:30;18.45;84.91
74224;SHT31;62585;49.706;18.216;2022-09-09T07:25:57;18.69;86.35
74224;SHT31;62585;49.706;18.216;2022-09-09T07:28:23;18.88;84.48
74224;SHT31;62585;49.706;18.216;2022-09-09T07:30:57;18.86;83.71
74224;SHT31;62585;49.706;18.216;2022-09-09T07:33:24;18.97;82.67
74224;SHT31;62585;49.706;18.216;2022-09-09T07:35:52;19.03;83.84
74224;SHT31;62585;49.706;18.216;2022-09-09T07:38:19;18.86;83.16
74224;SHT31;62585;49.706;18.216;2022-09-09T07:40:46;19.06;84.21
74224;SHT31;62585;49.706;18.216;2022-09-09T07:43:12;19.28;84.12
74224;SHT31;62585;49.706;18.216;2022-09-09T07:45:38;19.47;82.31
74224;SHT31;62585;49.706;18.216;2022-09-09T07:48:04;19.48;82.14
74224;SHT31;62585;49.706;18.216;2022-09-09T07:50:30;19.39;80.78
74224;SHT31;62585;49.706;18.216;2022-09-09T07:52:56;19.39;79.35
74224;SHT31;62585;49.706;18.216;2022-09-09T07:55:23;19.72;79.46
74224;SHT31;62585;49.706;18.216;2022-09-09T07:57:53;19.78;79.20
74224;SHT31;62585;49.706;18.216;2022-09-09T08:00:19;19.55;78.62
74224;SHT31;62585;49.706;18.216;2022-09-09T08:02:47;19.32;80.33
74224;SHT31;62585;49.706;18.216;2022-09-09T08:05:14;19.53;78.85
74224;SHT31;62585;49.706;18.216;2022-09-09T08:07:40;19.61;80.37
74224;SHT31;62585;49.706;18.216;2022-09-09T08:10:07;19.61;80.13
74224;SHT31;62585;49.706;18.216;2022-09-09T08:12:32;19.66;79.19
74224;SHT31;62585;49.706;18.216;2022-09-09T08:14:58;19.59;80.29
74224;SHT31;62585;49.706;18.216;2022-09-09T08:17:27;19.81;78.49
74224;SHT31;62585;49.706;18.216;2022-09-09T08:19:53;19.99;78.81
74224;SHT31;62585;49.706;18.216;2022-09-09T08:22:19;19.86;77.62
74224;SHT31;62585;49.706;18.216;2022-09-09T08:24:46;20.05;77.65
74224;SHT31;62585;49.706;18.216;2022-09-09T08:27:12;20.47;78.38
74224;SHT31;62585;49.706;18.216;2022-09-09T08:29:38;20.71;77.24
74224;SHT31;62585;49.706;18.216;2022-09-09T08:32:05;20.82;76.07
74224;SHT31;62585;49.706;18.216;2022-09-09T08:34:31;20.52;75.29
74224;SHT31;62585;49.706;18.216;2022-09-09T08:36:58;20.55;74.63
74224;SHT31;62585;49.706;18.216;2022-09-09T08:39:23;20.44;75.02
74224;SHT31;62585;49.706;18.216;2022-09-09T08:50:12;20.78;70.19
74224;SHT31;62585;49.706;18.216;2022-09-09T08:55:35;21.08;68.49
74224;SHT31;62585;49.706;18.216;2022-09-09T08:58:12;21.25;66.86
74224;SHT31;62585;49.706;18.216;2022-09-09T09:00:47;21.37;65.37
74224;SHT31;62585;49.706;18.216;2022-09-09T09:03:39;20.96;67.83
74224;SHT31;62585;49.706;18.216;2022-09-09T09:09:11;21.47;67.23
74224;SHT31;62585;49.706;18.216;2022-09-09T09:11:44;21.91;66.72
74224;SHT31;62585;49.706;18.216;2022-09-09T09:14:22;22.01;66.15
74224;SHT31;62585;49.706;18.216;2022-09-09T09:17:20;22.40;62.64
74224;SHT31;62585;49.706;18.216;2022-09-09T09:19:48;22.06;62.13
74224;SHT31;62585;49.706;18.216;2022-09-09T09:25:16;21.98;62.11
74224;SHT31;62585;49.706;18.216;2022-09-09T09:27:58;22.05;62.73
74224;SHT31;62585;49.706;18.216;2022-09-09T09:31:04;22.26;63.80
74224;SHT31;62585;49.706;18.216;2022-09-09T09:33:47;22.32;61.34
74224;SHT31;62585;49.706;18.216;2022-09-09T09:36:15;22.32;60.83
74224;SHT31;62585;49.706;18.216;2022-09-09T09:38:56;22.12;60.14
74224;SHT31;62585;49.706;18.216;2022-09-09T09:41:48;22.69;57.51
74224;SHT31;62585;49.706;18.216;2022-09-09T09:44:31;22.43;58.36
74224;SHT31;62585;49.706;18.216;2022-09-09T09:49:39;22.73;60.04
74224;SHT31;62585;49.706;18.216;2022-09-09T09:52:19;22.60;57.16
74224;SHT31;62585;49.706;18.216;2022-09-09T09:54:46;22.86;55.56
74224;SHT31;62585;49.706;18.216;2022-09-09T09:57:14;22.39;59.10
74224;SHT31;62585;49.706;18.216;2022-09-09T09:59:42;22.01;57.55
74224;SHT31;62585;49.706;18.216;2022-09-09T10:02:20;22.87;60.94
74224;SHT31;62585;49.706;18.216;2022-09-09T10:04:46;23.44;56.44
74224;SHT31;62585;49.706;18.216;2022-09-09T10:07:21;22.97;52.74
74224;SHT31;62585;49.706;18.216;2022-09-09T10:09:53;22.71;52.39
74224;SHT31;62585;49.706;18.216;2022-09-09T10:12:50;23.12;54.59
74224;SHT31;62585;49.706;18.216;2022-09-09T10:16:22;23.32;55.60
74224;SHT31;62585;49.706;18.216;2022-09-09T10:24:23;23.99;54.41
74224;SHT31;62585;49.706;18.216;2022-09-09T10:27:15;23.66;55.07
74224;SHT31;62585;49.706;18.216;2022-09-09T10:30:15;23.82;52.20
74224;SHT31;62585;49.706;18.216;2022-09-09T10:35:29;23.39;53.86
74224;SHT31;62585;49.706;18.216;2022-09-09T10:43:56;23.84;51.52
74224;SHT31;62585;49.706;18.216;2022-09-09T10:57:33;24.86;48.17
74224;SHT31;62585;49.706;18.216;2022-09-09T11:00:59;24.88;47.43
74224;SHT31;62585;49.706;18.216;2022-09-09T11:03:03;25.19;48.41
74224;SHT31;62585;49.706;18.216;2022-09-09T11:05:42;24.86;47.65
74224;SHT31;62585;49.706;18.216;2022-09-09T11:08:14;24.62;45.63
74224;SHT31;62585;49.706;18.216;2022-09-09T11:10:49;24.16;47.48
74224;SHT31;62585;49.706;18.216;2022-09-09T11:13:29;24.41;46.60
74224;SHT31;62585;49.706;18.216;2022-09-09T11:16:15;24.71;46.65
74224;SHT31;62585;49.706;18.216;2022-09-09T11:18:43;25.13;48.48
74224;SHT31;62585;49.706;18.216;2022-09-09T11:21:22;25.02;46.51
74224;SHT31;62585;49.706;18.216;2022-09-09T11:24:00;24.13;44.48
74224;SHT31;62585;49.706;18.216;2022-09-09T11:26:47;23.80;48.71
74224;SHT31;62585;49.706;18.216;2022-09-09T11:37:41;24.85;49.24
74224;SHT31;62585;49.706;18.216;2022-09-09T11:42:43;24.21;46.74
74224;SHT31;62585;49.706;18.216;2022-09-09T11:45:31;24.51;47.60
74224;SHT31;62585;49.706;18.216;2022-09-09T11:48:00;24.62;47.19
74224;SHT31;62585;49.706;18.216;2022-09-09T11:50:33;25.37;47.78
74224;SHT31;62585;49.706;18.216;2022-09-09T11:55:39;25.26;45.52
74224;SHT31;62585;49.706;18.216;2022-09-09T11:58:15;24.54;48.62
74224;SHT31;62585;49.706;18.216;2022-09-09T12:00:47;24.59;48.56
74224;SHT31;62585;49.706;18.216;2022-09-09T12:05:57;24.85;45.91
74224;SHT31;62585;49.706;18.216;2022-09-09T12:08:27;25.06;44.05
74224;SHT31;62585;49.706;18.216;2022-09-09T12:10:56;24.45;44.52
74224;SHT31;62585;49.706;18.216;2022-09-09T12:13:25;24.88;43.65
74224;SHT31;62585;49.706;18.216;2022-09-09T12:15:54;24.54;44.40
74224;SHT31;62585;49.706;18.216;2022-09-09T12:18:31;24.82;47.54
74224;SHT31;62585;49.706;18.216;2022-09-09T12:24:20;25.09;45.88
74224;SHT31;62585;49.706;18.216;2022-09-09T12:27:00;25.02;45.90
74224;SHT31;62585;49.706;18.216;2022-09-09T12:29:40;25.15;47.42
74224;SHT31;62585;49.706;18.216;2022-09-09T12:32:17;25.55;44.71
74224;SHT31;62585;49.706;18.216;2022-09-09T12:34:53;24.65;45.63
74224;SHT31;62585;49.706;18.216;2022-09-09T12:39:58;27.19;40.06
74224;SHT31;62585;49.706;18.216;2022-09-09T12:42:26;27.71;40.10
74224;SHT31;62585;49.706;18.216;2022-09-09T12:44:54;28.82;37.22
74224;SHT31;62585;49.706;18.216;2022-09-09T12:50:19;30.05;35.82
74224;SHT31;62585;49.706;18.216;2022-09-09T12:52:48;29.59;34.91
74224;SHT31;62585;49.706;18.216;2022-09-09T12:55:20;29.98;35.00
74224;SHT31;62585;49.706;18.216;2022-09-09T12:57:48;30.36;35.93
74224;SHT31;62585;49.706;18.216;2022-09-09T13:00:21;29.88;35.05
74224;SHT31;62585;49.706;18.216;2022-09-09T13:02:59;29.69;35.47
74224;SHT31;62585;49.706;18.216;2022-09-09T13:05:35;28.82;35.74
74224;SHT31;62585;49.706;18.216;2022-09-09T13:08:03;27.93;37.14
74224;SHT31;62585;49.706;18.216;2022-09-09T13:10:33;27.96;40.60
74224;SHT31;62585;49.706;18.216;2022-09-09T13:13:01;27.52;41.31
74224;SHT31;62585;49.706;18.216;2022-09-09T13:15:29;26.91;44.23
74224;SHT31;62585;49.706;18.216;2022-09-09T13:17:57;26.51;44.63
74224;SHT31;62585;49.706;18.216;2022-09-09T13:20:26;26.49;44.40
74224;SHT31;62585;49.706;18.216;2022-09-09T13:22:54;26.26;44.07
74224;SHT31;62585;49.706;18.216;2022-09-09T13:25:28;26.71;46.42
74224;SHT31;62585;49.706;18.216;2022-09-09T13:28:01;26.68;41.35
74224;SHT31;62585;49.706;18.216;2022-09-09T13:30:34;27.60;40.85
74224;SHT31;62585;49.706;18.216;2022-09-09T13:33:21;28.05;38.78
74224;SHT31;62585;49.706;18.216;2022-09-09T13:35:55;27.66;41.14
74224;SHT31;62585;49.706;18.216;2022-09-09T13:38:21;27.28;42.54
74224;SHT31;62585;49.706;18.216;2022-09-09T13:43:28;27.71;44.61
74224;SHT31;62585;49.706;18.216;2022-09-09T13:46:00;27.98;41.18
74224;SHT31;62585;49.706;18.216;2022-09-09T13:48:28;27.54;42.84
74224;SHT31;62585;49.706;18.216;2022-09-09T13:50:59;27.24;45.00
74224;SHT31;62585;49.706;18.216;2022-09-09T13:53:26;26.60;45.08
74224;SHT31;62585;49.706;18.216;2022-09-09T13:55:52;26.39;47.70
74224;SHT31;62585;49.706;18.216;2022-09-09T13:58:19;26.30;47.84
74224;SHT31;62585;49.706;18.216;2022-09-09T14:00:46;25.27;48.37
74224;SHT31;62585;49.706;18.216;2022-09-09T14:03:12;25.10;47.46
74224;SHT31;62585;49.706;18.216;2022-09-09T14:05:38;24.78;48.64
74224;SHT31;62585;49.706;18.216;2022-09-09T14:08:06;25.06;49.22
74224;SHT31;62585;49.706;18.216;2022-09-09T14:10:32;25.40;50.11
74224;SHT31;62585;49.706;18.216;2022-09-09T14:12:59;25.43;50.10
74224;SHT31;62585;49.706;18.216;2022-09-09T14:15:25;25.86;45.33
74224;SHT31;62585;49.706;18.216;2022-09-09T14:17:52;25.84;42.17
74224;SHT31;62585;49.706;18.216;2022-09-09T14:20:18;25.77;44.69
74224;SHT31;62585;49.706;18.216;2022-09-09T14:22:44;25.78;49.48
74224;SHT31;62585;49.706;18.216;2022-09-09T14:25:10;25.47;47.40
74224;SHT31;62585;49.706;18.216;2022-09-09T14:27:39;25.16;46.14
74224;SHT31;62585;49.706;18.216;2022-09-09T14:30:06;24.72;45.32
74224;SHT31;62585;49.706;18.216;2022-09-09T14:32:32;24.61;46.36
74224;SHT31;62585;49.706;18.216;2022-09-09T14:34:59;24.65;52.82
74224;SHT31;62585;49.706;18.216;2022-09-09T14:37:25;24.69;54.12
74224;SHT31;62585;49.706;18.216;2022-09-09T14:39:51;24.61;54.24
74224;SHT31;62585;49.706;18.216;2022-09-09T14:42:18;24.47;51.68
74224;SHT31;62585;49.706;18.216;2022-09-09T14:44:44;24.55;55.12
74224;SHT31;62585;49.706;18.216;2022-09-09T14:47:10;24.76;51.09
74224;SHT31;62585;49.706;18.216;2022-09-09T14:49:37;24.99;49.90
74224;SHT31;62585;49.706;18.216;2022-09-09T14:52:03;24.93;50.41
74224;SHT31;62585;49.706;18.216;2022-09-09T14:54:29;24.68;54.23
74224;SHT31;62585;49.706;18.216;2022-09-09T14:56:56;24.68;53.03
74224;SHT31;62585;49.706;18.216;2022-09-09T14:59:22;24.28;52.74
74224;SHT31;62585;49.706;18.216;2022-09-09T15:01:48;24.11;59.65
74224;SHT31;62585;49.706;18.216;2022-09-09T15:04:15;23.96;61.48
74224;SHT31;62585;49.706;18.216;2022-09-09T15:06:42;23.83;61.42
74224;SHT31;62585;49.706;18.216;2022-09-09T15:09:12;23.65;60.02
74224;SHT31;62585;49.706;18.216;2022-09-09T15:11:38;23.32;61.82
74224;SHT31;62585;49.706;18.216;2022-09-09T15:14:05;23.37;61.70
74224;SHT31;62585;49.706;18.216;2022-09-09T15:16:31;23.22;63.21
74224;SHT31;62585;49.706;18.216;2022-09-09T15:18:59;23.15;63.61
74224;SHT31;62585;49.706;18.216;2022-09-09T15:21:27;23.12;63.40
74224;SHT31;62585;49.706;18.216;2022-09-09T15:23:55;23.01;63.97
74224;SHT31;62585;49.706;18.216;2022-09-09T15:26:22;22.94;64.84
74224;SHT31;62585;49.706;18.216;2022-09-09T15:28:48;22.94;64.52
74224;SHT31;62585;49.706;18.216;2022-09-09T15:31:23;22.88;63.87
74224;SHT31;62585;49.706;18.216;2022-09-09T15:34:01;22.93;63.53
74224;SHT31;62585;49.706;18.216;2022-09-09T15:36:34;22.88;61.60
74224;SHT31;62585;49.706;18.216;2022-09-09T15:39:01;22.70;62.64
74224;SHT31;62585;49.706;18.216;2022-09-09T15:41:28;22.60;65.86
74224;SHT31;62585;49.706;18.216;2022-09-09T15:43:56;22.43;65.11
74224;SHT31;62585;49.706;18.216;2022-09-09T15:46:31;22.38;64.76
74224;SHT31;62585;49.706;18.216;2022-09-09T15:49:03;22.29;66.52
74224;SHT31;62585;49.706;18.216;2022-09-09T15:51:30;22.19;65.67
74224;SHT31;62585;49.706;18.216;2022-09-09T15:53:57;22.26;63.78
74224;SHT31;62585;49.706;18.216;2022-09-09T15:56:25;22.12;63.39
74224;SHT31;62585;49.706;18.216;2022-09-09T15:58:55;22.06;67.91
74224;SHT31;62585;49.706;18.216;2022-09-09T16:01:20;21.93;67.67
74224;SHT31;62585;49.706;18.216;2022-09-09T16:03:46;21.66;66.28
74224;SHT31;62585;49.706;18.216;2022-09-09T16:06:14;21.68;67.26
74224;SHT31;62585;49.706;18.216;2022-09-09T16:08:45;21.58;67.58
74224;SHT31;62585;49.706;18.216;2022-09-09T16:11:14;21.54;68.16
74224;SHT31;62585;49.706;18.216;2022-09-09T16:13:44;21.54;68.43
74224;SHT31;62585;49.706;18.216;2022-09-09T16:16:14;21.50;70.80
74224;SHT31;62585;49.706;18.216;2022-09-09T16:18:45;21.47;69.66
74224;SHT31;62585;49.706;18.216;2022-09-09T16:21:26;21.32;70.30
74224;SHT31;62585;49.706;18.216;2022-09-09T16:23:55;21.16;71.08
74224;SHT31;62585;49.706;18.216;2022-09-09T16:26:22;21.05;69.95
74224;SHT31;62585;49.706;18.216;2022-09-09T16:28:49;20.96;70.86
74224;SHT31;62585;49.706;18.216;2022-09-09T16:31:19;20.94;71.20
74224;SHT31;62585;49.706;18.216;2022-09-09T16:33:46;20.91;71.11
74224;SHT31;62585;49.706;18.216;2022-09-09T16:36:29;20.78;71.15
74224;SHT31;62585;49.706;18.216;2022-09-09T16:39:00;20.61;70.60
74224;SHT31;62585;49.706;18.216;2022-09-09T16:41:28;20.50;70.14
74224;SHT31;62585;49.706;18.216;2022-09-09T16:43:56;20.43;70.53
74224;SHT31;62585;49.706;18.216;2022-09-09T16:46:22;20.45;70.27
74224;SHT31;62585;49.706;18.216;2022-09-09T16:48:49;20.39;70.14
74224;SHT31;62585;49.706;18.216;2022-09-09T16:51:17;20.37;70.49
74224;SHT31;62585;49.706;18.216;2022-09-09T16:53:44;20.32;69.64
74224;SHT31;62585;49.706;18.216;2022-09-09T16:56:16;20.20;70.26
74224;SHT31;62585;49.706;18.216;2022-09-09T16:58:43;20.26;70.80
74224;SHT31;62585;49.706;18.216;2022-09-09T17:01:11;20.20;68.98
74224;SHT31;62585;49.706;18.216;2022-09-09T17:03:40;20.14;68.92
74224;SHT31;62585;49.706;18.216;2022-09-09T17:06:10;20.14;68.81
74224;SHT31;62585;49.706;18.216;2022-09-09T17:08:38;20.20;69.74
74224;SHT31;62585;49.706;18.216;2022-09-09T17:11:17;20.05;68.13
74224;SHT31;62585;49.706;18.216;2022-09-09T17:13:45;19.82;68.20
74224;SHT31;62585;49.706;18.216;2022-09-09T17:16:12;19.58;69.85
74224;SHT31;62585;49.706;18.216;2022-09-09T17:18:39;19.50;71.94
74224;SHT31;62585;49.706;18.216;2022-09-09T17:21:12;19.45;73.77
74224;SHT31;62585;49.706;18.216;2022-09-09T17:23:40;19.39;75.40
74224;SHT31;62585;49.706;18.216;2022-09-09T17:26:08;19.28;76.04
74224;SHT31;62585;49.706;18.216;2022-09-09T17:28:36;19.23;76.50
74224;SHT31;62585;49.706;18.216;2022-09-09T17:31:05;19.14;76.99
74224;SHT31;62585;49.706;18.216;2022-09-09T17:33:33;19.11;76.98
74224;SHT31;62585;49.706;18.216;2022-09-09T17:36:02;19.11;76.84
74224;SHT31;62585;49.706;18.216;2022-09-09T17:38:32;19.02;76.94